Time;durP1;ratioP1;P1;durP2;ratioP2;P2;SDS_P1;SDS_P2;PMS_P1;PMS_P2;Temp;Humidity;BMP_temperature;BMP_pressure;BME280_temperature;BME280_humidity;BME280_pressure;Samples;Min_cycle;Max_cycle;Signal;HPM_P1;HPM_P2
2021/08/05 00:01:59;;;;;;;7.03;5.90;;;;;;;16.88;75.01;99857.40;126832;1090;114613;-80
2021/08/05 00:04:47;;;;;;;7.03;5.53;;;;;;;16.88;75.13;99860.88;126860;1090;102875;-80
2021/08/05 00:07:35;;;;;;;6.80;5.53;;;;;;;16.90;74.90;99856.35;126781;1089;114417;-80
2021/08/05 00:10:23;;;;;;;6.90;6.20;;;;;;;16.88;74.96;99852.97;126954;1088;103032;-80
2021/08/05 00:13:11;;;;;;;8.80;6.57;;;;;;;16.83;74.56;99855.03;126918;1087;113392;-80
2021/08/05 00:16:01;;;;;;;9.53;6.77;;;;;;;16.78;75.01;99851.86;126923;1089;102798;-80
2021/08/05 00:18:53;;;;;;;9.10;6.47;;;;;;;16.72;74.92;99852.27;126850;1089;114274;-80
2021/08/05 00:21:41;;;;;;;6.83;6.13;;;;;;;16.69;75.07;99854.22;126758;1090;103013;-80
2021/08/05 00:24:28;;;;;;;;;;;;;;;16.68;75.21;99849.89;126771;1090;114270;-80
2021/08/05 00:27:16;;;;;;;9.23;6.77;;;;;;;16.67;75.51;99843.78;126916;1090;103032;-80
2021/08/05 00:30:05;;;;;;;7.60;6.43;;;;;;;16.68;75.40;99840.20;126926;1090;102861;-80
2021/08/05 00:32:53;;;;;;;9.90;6.60;;;;;;;16.70;75.48;99838.35;126852;1089;114000;-80
2021/08/05 00:35:43;;;;;;;12.47;7.73;;;;;;;16.70;75.21;99840.14;127009;1090;101755;-80
2021/08/05 00:38:34;;;;;;;8.73;6.87;;;;;;;16.66;74.97;99835.95;126807;1088;114121;-80
2021/08/05 00:41:21;;;;;;;9.33;6.60;;;;;;;16.59;74.95;99825.83;126948;1089;102855;-80
2021/08/05 00:44:12;;;;;;;8.83;6.57;;;;;;;16.53;74.92;99826.22;126724;1089;113967;-80
2021/08/05 00:47:00;;;;;;;8.67;6.13;;;;;;;16.47;74.91;99826.59;126993;1089;101113;-81
2021/08/05 00:49:49;;;;;;;7.10;6.40;;;;;;;16.45;75.05;99823.21;126899;1089;113925;-80
2021/08/05 00:52:37;;;;;;;9.43;6.50;;;;;;;16.42;75.20;99823.41;126914;1090;102888;-80
2021/08/05 00:55:29;;;;;;;8.40;6.80;;;;;;;16.38;75.24;99821.92;126892;1087;114099;-80
2021/08/05 00:58:17;;;;;;;7.97;6.10;;;;;;;16.34;75.34;99825.70;126851;1088;102851;-80
2021/08/05 01:01:13;;;;;;;8.03;6.20;;;;;;;16.29;75.41;99822.48;126853;1087;113236;-80
2021/08/05 01:04:02;;;;;;;6.70;6.00;;;;;;;16.27;75.41;99822.58;126994;1090;102998;-80
2021/08/05 01:06:59;;;;;;;7.47;5.70;;;;;;;16.26;75.50;99823.52;126857;1089;114236;-80
2021/08/05 01:10:01;;;;;;;7.80;6.73;;;;;;;16.24;75.66;99820.14;126943;1089;101618;-80
2021/08/05 01:13:07;;;;;;;8.07;5.97;;;;;;;16.23;75.70;99818.45;126838;1090;114275;-80
2021/08/05 01:16:00;;;;;;;7.53;6.17;;;;;;;16.26;75.52;99814.78;126979;1089;102973;-80
2021/08/05 01:18:50;;;;;;;8.67;6.77;;;;;;;16.24;75.45;99814.03;126874;1090;114049;-80
2021/08/05 01:21:50;;;;;;;8.33;6.77;;;;;;;16.22;75.39;99816.77;126943;1088;103083;-81
2021/08/05 01:24:51;;;;;;;8.67;6.23;;;;;;;16.20;75.68;99810.76;126852;1090;114066;-80
2021/08/05 01:27:40;;;;;;;7.60;5.83;;;;;;;16.18;75.49;99810.02;126993;1088;103448;-80
2021/08/05 01:30:31;;;;;;;7.07;5.90;;;;;;;16.17;75.62;99807.48;126888;1090;103078;-80
2021/08/05 01:33:22;;;;;;;9.07;6.40;;;;;;;16.17;75.76;99808.33;126953;1090;102945;-80
2021/08/05 01:36:11;;;;;;;7.60;6.37;;;;;;;16.16;75.77;99804.00;126866;1090;103037;-80
2021/08/05 01:38:59;;;;;;;8.83;6.13;;;;;;;16.19;75.77;99797.70;126701;1089;114201;-80
2021/08/05 01:41:49;;;;;;;9.13;6.33;;;;;;;16.23;75.48;99796.56;126844;1088;102655;-80
2021/08/05 01:44:41;;;;;;;7.40;5.73;;;;;;;16.21;75.53;99801.08;126880;1090;114301;-80
2021/08/05 01:47:30;;;;;;;7.43;6.17;;;;;;;16.17;75.41;99797.80;127000;1089;102845;-80
2021/08/05 01:50:18;;;;;;;9.73;6.57;;;;;;;16.13;75.45;99798.91;126875;1089;113965;-80
2021/08/05 01:53:08;;;;;;;9.93;7.03;;;;;;;16.11;75.45;99798.16;126879;1089;102985;-80
2021/08/05 01:55:56;;;;;;;8.83;6.40;;;;;;;16.09;75.55;99794.78;126914;1090;113893;-80
2021/08/05 01:58:45;;;;;;;7.93;6.70;;;;;;;16.05;75.50;99798.55;126997;1089;102853;-80
2021/08/05 02:01:35;;;;;;;9.03;6.37;;;;;;;16.03;75.56;99805.69;126928;1090;114093;-80
2021/08/05 02:04:33;;;;;;;7.73;6.10;;;;;;;16.01;75.64;99794.42;127010;1089;102855;-80
2021/08/05 02:07:30;;;;;;;8.18;7.35;;;;;;;16.03;75.70;99799.59;126872;1090;112978;-80
2021/08/05 02:10:42;;;;;;;7.93;6.70;;;;;;;16.04;75.79;99793.38;126988;1090;102913;-80
2021/08/05 02:13:40;;;;;;;9.23;7.03;;;;;;;16.03;75.59;99796.95;126835;1090;114267;-80
2021/08/05 02:16:30;;;;;;;9.50;7.47;;;;;;;16.04;75.69;99798.64;127029;1090;102232;-80
2021/08/05 02:19:18;;;;;;;10.40;8.03;;;;;;;16.05;75.79;99790.66;126872;1088;114228;-80
2021/08/05 02:22:08;;;;;;;7.97;6.73;;;;;;;16.07;75.82;99796.66;126916;1088;102673;-80
2021/08/05 02:24:56;;;;;;;9.00;7.00;;;;;;;16.08;75.61;99795.72;126952;1088;102849;-80
2021/08/05 02:27:46;;;;;;;8.20;6.73;;;;;;;16.03;75.45;99800.43;126965;1089;102040;-80
2021/08/05 02:30:39;;;;;;;8.97;7.50;;;;;;;15.96;75.47;99809.62;126830;1088;101459;-81
2021/08/05 02:33:33;;;;;;;7.40;6.43;;;;;;;15.94;75.52;99809.72;126881;1090;113898;-81
2021/08/05 02:36:22;;;;;;;7.00;6.30;;;;;;;15.89;75.31;99813.58;126970;1090;102949;-81
2021/08/05 02:39:10;;;;;;;8.00;7.17;;;;;;;15.84;75.51;99815.64;126796;1089;114241;-80
2021/08/05 02:41:59;;;;;;;8.30;7.40;;;;;;;15.83;75.47;99817.43;126939;1090;102965;-81
2021/08/05 02:44:47;;;;;;;8.13;7.33;;;;;;;15.81;75.59;99808.80;126906;1089;113214;-80
2021/08/05 02:47:35;;;;;;;10.00;7.17;;;;;;;15.79;75.43;99813.27;126830;1090;103373;-79
2021/08/05 02:50:28;;;;;;;7.77;6.83;;;;;;;15.78;75.67;99810.73;126803;1090;113141;-79
2021/08/05 02:53:18;;;;;;;9.67;7.80;;;;;;;15.75;75.67;99809.14;126932;1090;102871;-79
2021/08/05 02:56:09;;;;;;;8.23;7.07;;;;;;;15.70;75.55;99805.95;126867;1089;114082;-79
2021/08/05 02:59:00;;;;;;;7.57;6.77;;;;;;;15.65;75.79;99806.23;126827;1090;102947;-80
2021/08/05 03:01:59;;;;;;;9.30;7.43;;;;;;;15.64;75.74;99809.80;126796;1088;114127;-80
2021/08/05 03:04:48;;;;;;;9.07;7.13;;;;;;;15.64;75.86;99799.30;126974;1090;102908;-80
2021/08/05 03:07:36;;;;;;;8.20;7.40;;;;;;;15.63;75.94;99805.48;126872;1090;114230;-80
2021/08/05 03:10:24;;;;;;;9.20;7.27;;;;;;;15.64;75.99;99801.08;127025;1087;103014;-80
2021/08/05 03:13:12;;;;;;;7.80;7.00;;;;;;;15.62;76.08;99793.28;126910;1090;102849;-80
2021/08/05 03:16:00;;;;;;;7.60;6.90;;;;;;;15.64;76.00;99793.19;126940;1088;113813;-80
2021/08/05 03:18:47;;;;;;;8.60;7.50;;;;;;;15.64;75.96;99788.78;126971;1090;102860;-80
2021/08/05 03:21:35;;;;;;;;;;;;;;;15.64;76.01;99785.30;126924;1089;113919;-80
2021/08/05 03:24:27;;;;;;;10.67;6.87;;;;;;;15.69;76.17;99784.08;127025;1088;102879;-80
2021/08/05 03:27:17;;;;;;;9.70;6.97;;;;;;;15.76;76.18;99779.28;126723;1090;113176;-80
2021/08/05 03:30:10;;;;;;;8.37;7.30;;;;;;;15.81;76.18;99784.28;126989;1090;101168;-80
2021/08/05 03:33:01;;;;;;;7.70;6.90;;;;;;;15.83;75.85;99783.25;126917;1088;113992;-80
2021/08/05 03:35:50;;;;;;;7.57;6.23;;;;;;;15.83;75.99;99774.52;126914;1089;102876;-80
2021/08/05 03:38:39;;;;;;;6.60;5.90;;;;;;;15.87;75.99;99773.38;126807;1090;114388;-79
2021/08/05 03:41:27;;;;;;;8.17;6.80;;;;;;;15.96;76.16;99778.06;127056;1087;103061;-81
2021/08/05 03:44:16;;;;;;;7.30;6.60;;;;;;;16.09;75.98;99772.89;126876;1088;112980;-79
2021/08/05 03:47:09;;;;;;;8.00;7.00;;;;;;;16.19;75.86;99780.13;127025;1089;102954;-79
2021/08/05 03:49:59;;;;;;;9.60;6.27;;;;;;;16.28;75.46;99768.16;126918;1090;114099;-79
2021/08/05 03:52:47;;;;;;;7.20;6.50;;;;;;;16.36;75.60;99772.95;126979;1089;102943;-80
2021/08/05 03:55:34;;;;;;;;;;;;;;;16.46;75.47;99766.99;127110;1090;103016;-80
2021/08/05 03:58:32;;;;;;;7.73;6.97;;;;;;;16.55;75.15;99778.73;126975;1088;102877;-80
2021/08/05 04:01:20;;;;;;;7.73;6.93;;;;;;;16.63;74.88;99776.44;126933;1089;104038;-80
2021/08/05 04:04:08;;;;;;;8.13;6.63;;;;;;;16.66;74.79;99776.23;126795;1087;114291;-79
2021/08/05 04:06:56;;;;;;;6.70;6.07;;;;;;;16.73;74.54;99780.22;126934;1087;102151;-79
2021/08/05 04:09:44;;;;;;;7.57;6.73;;;;;;;16.80;74.48;99781.49;126822;1090;114170;-80
2021/08/05 04:12:31;;;;;;;;;;;;;;;16.88;74.51;99773.11;126863;1090;103020;-79
2021/08/05 04:15:20;;;;;;;8.33;6.83;;;;;;;16.88;74.52;99773.95;126823;1088;102870;-79
2021/08/05 04:18:08;;;;;;;9.10;6.60;;;;;;;16.91;74.38;99776.38;127039;1089;102865;-79
2021/08/05 04:20:56;;;;;;;;;;;;;;;16.93;74.12;99773.64;126918;1088;113977;-79
2021/08/05 04:23:45;;;;;;;9.63;7.05;;;;;;;16.94;74.17;99771.85;127040;1088;102997;-79
2021/08/05 04:26:32;;;;;;;7.40;6.58;;;;;;;16.97;74.27;99766.38;126920;1090;114106;-79
2021/08/05 04:29:20;;;;;;;8.30;7.50;;;;;;;17.02;74.40;99770.39;126879;1088;102970;-79
2021/08/05 04:32:08;;;;;;;10.97;6.20;;;;;;;17.09;74.13;99770.84;126933;1089;113022;-79
2021/08/05 04:34:55;;;;;;;7.37;5.97;;;;;;;17.12;74.03;99775.91;127007;1088;102943;-79
2021/08/05 04:37:47;;;;;;;;;;;;;;;17.18;73.74;99781.59;126844;1089;102855;-79
2021/08/05 04:40:34;;;;;;;7.73;6.87;;;;;;;17.22;73.67;99776.96;126920;1090;103015;-79
2021/08/05 04:43:22;;;;;;;7.47;6.40;;;;;;;17.22;73.39;99771.69;126881;1090;103058;-79
2021/08/05 04:46:09;;;;;;;;;;;;;;;17.20;73.48;99763.05;126766;1089;114243;-79
2021/08/05 04:48:57;;;;;;;7.20;6.20;;;;;;;17.22;73.36;99763.78;126950;1089;103087;-79
2021/08/05 04:51:53;;;;;;;6.67;5.87;;;;;;;17.27;73.12;99766.98;126745;1090;112890;-79
2021/08/05 04:54:41;;;;;;;7.00;6.30;;;;;;;17.31;73.25;99781.63;126957;1089;103573;-80
2021/08/05 04:57:33;;;;;;;7.10;6.40;;;;;;;17.40;73.09;99775.72;127039;1090;114145;-79
2021/08/05 05:00:31;;;;;;;10.20;7.33;;;;;;;17.49;72.73;99777.75;126883;1089;102900;-79
2021/08/05 05:03:20;;;;;;;6.95;6.15;;;;;;;17.59;72.62;99777.95;126791;1089;114451;-79
2021/08/05 05:06:08;;;;;;;6.40;5.80;;;;;;;17.68;72.60;99780.00;127007;1090;101872;-79
2021/08/05 05:08:57;;;;;;;7.83;6.73;;;;;;;17.73;72.37;99782.31;126819;1090;114064;-79
2021/08/05 05:11:45;;;;;;;7.77;6.67;;;;;;;17.79;72.29;99780.12;126740;1090;102866;-80
2021/08/05 05:14:32;;;;;;;8.07;6.07;;;;;;;17.86;72.16;99772.61;126855;1089;114002;-79
2021/08/05 05:17:24;;;;;;;6.47;5.83;;;;;;;17.91;72.08;99772.28;126919;1088;101212;-79
2021/08/05 05:20:13;;;;;;;7.67;5.90;;;;;;;17.97;71.90;99771.88;126952;1087;103022;-80
2021/08/05 05:23:02;;;;;;;7.10;6.33;;;;;;;18.04;71.85;99766.05;126854;1090;100560;-80
2021/08/05 05:25:50;;;;;;;7.40;6.57;;;;;;;18.15;71.70;99767.09;127072;1090;100562;-80
2021/08/05 05:28:38;;;;;;;9.07;6.70;;;;;;;18.21;71.33;99771.92;127012;1089;114020;-79
2021/08/05 05:31:25;;;;;;;10.17;7.80;;;;;;;18.25;71.36;99773.39;127024;1090;102974;-79
2021/08/05 05:34:14;;;;;;;8.53;7.17;;;;;;;18.30;71.00;99773.89;126936;1088;113374;-80
2021/08/05 05:37:02;;;;;;;9.50;6.50;;;;;;;18.35;70.78;99769.15;127056;1090;102884;-81
2021/08/05 05:39:52;;;;;;;7.50;6.80;;;;;;;18.43;70.97;99764.98;126959;1089;112979;-80
2021/08/05 05:42:40;;;;;;;8.03;7.23;;;;;;;18.58;70.82;99765.68;126963;1090;102908;-81
2021/08/05 05:45:29;;;;;;;9.37;7.30;;;;;;;18.64;70.63;99765.25;126928;1087;113028;-80
2021/08/05 05:48:16;;;;;;;7.57;6.83;;;;;;;18.75;70.34;99761.84;127062;1090;102844;-81
2021/08/05 05:51:04;;;;;;;;;;;;;;;18.83;70.25;99766.55;126804;1090;114151;-80
2021/08/05 05:53:52;;;;;;;9.03;7.53;;;;;;;19.03;69.87;99760.65;126988;1090;102894;-80
2021/08/05 05:56:40;;;;;;;10.20;7.20;;;;;;;19.28;69.53;99756.98;126892;1089;102931;-81
2021/08/05 05:59:27;;;;;;;8.20;7.27;;;;;;;19.72;69.65;99753.59;127034;1090;103310;-80
2021/08/05 06:02:15;;;;;;;;;;;;;;;20.78;68.51;99746.00;126915;1089;101540;-80
2021/08/05 06:05:03;;;;;;;8.25;7.35;;;;;;;21.53;66.97;99747.69;126887;1089;102854;-82
2021/08/05 06:07:52;;;;;;;8.40;7.60;;;;;;;22.07;64.95;99739.44;127011;1088;102888;-81
2021/08/05 06:10:41;;;;;;;7.03;6.33;;;;;;;22.65;63.90;99728.95;126941;1090;113929;-80
2021/08/05 06:13:29;;;;;;;8.17;7.37;;;;;;;23.05;62.53;99733.31;126939;1089;102946;-81
2021/08/05 06:16:17;;;;;;;8.80;7.23;;;;;;;22.89;61.59;99736.53;126960;1089;114094;-81
2021/08/05 06:19:05;;;;;;;8.50;7.70;;;;;;;22.58;61.91;99733.13;126911;1090;102894;-80
2021/08/05 06:21:53;;;;;;;7.27;6.57;;;;;;;22.28;61.33;99726.94;126924;1089;114157;-80
2021/08/05 06:24:40;;;;;;;8.63;7.73;;;;;;;21.94;61.34;99729.05;127172;1088;100883;-80
2021/08/05 06:27:29;;;;;;;8.20;7.10;;;;;;;21.64;62.38;99719.27;126993;1090;114150;-80
2021/08/05 06:30:18;;;;;;;8.00;6.70;;;;;;;21.40;62.36;99722.22;126846;1088;102936;-80
2021/08/05 06:33:06;;;;;;;8.93;7.00;;;;;;;21.22;62.49;99710.49;127022;1088;102721;-79
2021/08/05 06:35:54;;;;;;;7.13;6.40;;;;;;;21.04;62.68;99717.34;126921;1087;102946;-80
2021/08/05 06:38:42;;;;;;;7.70;6.70;;;;;;;20.86;62.36;99717.08;126878;1088;102824;-80
2021/08/05 06:41:31;;;;;;;7.50;6.43;;;;;;;20.67;62.96;99715.11;126917;1087;113897;-79
2021/08/05 06:44:18;;;;;;;11.63;8.27;;;;;;;20.51;62.97;99712.87;126931;1089;101887;-80
2021/08/05 06:47:06;;;;;;;10.57;8.87;;;;;;;20.41;63.39;99711.08;126850;1089;114349;-80
2021/08/05 06:49:54;;;;;;;8.30;6.90;;;;;;;20.38;63.35;99714.80;127041;1088;102887;-80
2021/08/05 06:52:42;;;;;;;6.43;5.83;;;;;;;20.31;63.10;99712.78;126875;1088;114065;-79
2021/08/05 06:55:30;;;;;;;6.20;5.60;;;;;;;20.28;63.02;99716.48;127047;1090;102862;-79
2021/08/05 06:58:20;;;;;;;6.90;6.20;;;;;;;20.23;63.32;99716.87;126962;1089;114126;-80
2021/08/05 07:01:07;;;;;;;7.00;5.97;;;;;;;20.20;62.85;99718.92;127049;1089;102882;-80
2021/08/05 07:03:56;;;;;;;6.90;6.07;;;;;;;20.09;62.94;99710.99;126985;1087;114101;-80
2021/08/05 07:06:44;;;;;;;6.27;5.67;;;;;;;20.03;63.05;99708.84;127015;1090;102585;-80
2021/08/05 07:09:32;;;;;;;9.40;6.13;;;;;;;19.88;63.16;99705.61;127008;1088;102984;-81
2021/08/05 07:12:19;;;;;;;6.47;5.63;;;;;;;19.75;63.33;99708.41;127001;1089;101366;-80
2021/08/05 07:15:07;;;;;;;;;;;;;;;19.65;63.42;99702.13;126928;1089;102981;-80
2021/08/05 07:17:56;;;;;;;5.37;4.87;;;;;;;19.61;64.00;99703.34;126893;1090;102850;-80
2021/08/05 07:20:44;;;;;;;;;;;;;;;19.55;63.62;99706.44;127014;1089;102948;-80
2021/08/05 07:23:31;;;;;;;5.30;4.50;;;;;;;19.49;63.72;99696.31;126806;1090;101121;-79
2021/08/05 07:26:19;;;;;;;5.10;4.60;;;;;;;19.45;63.91;99692.23;127049;1087;101763;-80
2021/08/05 07:29:07;;;;;;;4.70;4.20;;;;;;;19.45;63.94;99693.08;126888;1088;114297;-80
2021/08/05 07:31:57;;;;;;;7.43;5.07;;;;;;;19.45;63.98;99694.88;126963;1089;102933;-80
2021/08/05 07:34:45;;;;;;;4.80;4.30;;;;;;;19.46;63.64;99685.98;126648;1090;113131;-81
2021/08/05 07:37:33;;;;;;;8.27;4.50;;;;;;;19.47;63.37;99696.44;126957;1090;102863;-80
2021/08/05 07:40:21;;;;;;;5.35;4.40;;;;;;;19.47;63.77;99695.60;126844;1090;114099;-80
2021/08/05 07:43:09;;;;;;;5.75;4.00;;;;;;;19.47;63.90;99688.50;126835;1090;103010;-80
2021/08/05 07:45:56;;;;;;;;;;;;;;;19.53;63.50;99690.66;127048;1090;100866;-81
2021/08/05 07:48:43;;;;;;;6.60;4.60;;;;;;;19.61;63.84;99684.83;126822;1090;102852;-81
2021/08/05 07:51:31;;;;;;;3.93;3.50;;;;;;;19.76;63.76;99683.63;126964;1089;101167;-81
2021/08/05 07:54:19;;;;;;;6.10;4.23;;;;;;;19.95;63.70;99690.10;126983;1089;114030;-81
2021/08/05 07:57:07;;;;;;;4.80;4.20;;;;;;;20.18;63.35;99683.80;126952;1090;102876;-81
2021/08/05 07:59:54;;;;;;;;;;;;;;;20.40;62.80;99674.94;126910;1090;113104;-81
2021/08/05 08:02:42;;;;;;;6.97;3.90;;;;;;;20.58;62.80;99681.41;127159;1090;102923;-81
2021/08/05 08:05:31;;;;;;;5.53;3.90;;;;;;;20.72;62.27;99675.81;126916;1088;114116;-82
2021/08/05 08:08:20;;;;;;;5.03;4.30;;;;;;;20.89;61.79;99677.05;127017;1090;102988;-82
2021/08/05 08:11:09;;;;;;;6.00;4.40;;;;;;;21.02;61.49;99667.11;126913;1089;114286;-81
2021/08/05 08:13:57;;;;;;;7.50;4.93;;;;;;;21.17;60.98;99666.75;126972;1089;102858;-81
2021/08/05 08:16:46;;;;;;;6.50;4.00;;;;;;;21.27;60.82;99670.34;126831;1090;112792;-80
2021/08/05 08:19:34;;;;;;;6.37;3.47;;;;;;;21.33;60.32;99665.34;127011;1090;102875;-80
2021/08/05 08:22:22;;;;;;;4.63;3.00;;;;;;;21.42;60.01;99658.42;127080;1089;102922;-80
2021/08/05 08:25:11;;;;;;;4.07;3.23;;;;;;;21.40;59.19;99670.98;126839;1090;103138;-81
2021/08/05 08:27:59;;;;;;;4.03;3.10;;;;;;;21.36;59.09;99665.10;127052;1088;102850;-80
2021/08/05 08:31:01;;;;;;;2.90;2.60;;;;;;;21.27;59.20;99660.58;126917;1089;113075;-81
2021/08/05 08:33:52;;;;;;;5.33;3.20;;;;;;;21.22;59.50;99654.80;126980;1090;103062;-81
2021/08/05 08:36:45;;;;;;;3.60;2.70;;;;;;;21.20;59.19;99648.79;126914;1089;114398;-81
2021/08/05 08:39:33;;;;;;;4.93;3.10;;;;;;;21.16;59.18;99657.11;126904;1089;102912;-82
2021/08/05 08:42:21;;;;;;;4.37;2.90;;;;;;;21.09;59.14;99652.34;126975;1090;112755;-82
2021/08/05 08:45:11;;;;;;;4.87;3.00;;;;;;;21.06;59.06;99652.61;127133;1090;102859;-81
2021/08/05 08:48:01;;;;;;;3.83;2.83;;;;;;;21.04;59.36;99651.91;126892;1089;113039;-81
2021/08/05 08:50:49;;;;;;;5.63;3.47;;;;;;;21.02;59.33;99651.20;126968;1088;102927;-81
2021/08/05 08:53:39;;;;;;;4.03;2.90;;;;;;;21.00;59.32;99647.80;126927;1090;114312;-81
2021/08/05 08:56:27;;;;;;;5.20;3.50;;;;;;;20.97;59.14;99653.38;127094;1088;102871;-81
2021/08/05 08:59:19;;;;;;;2.87;2.63;;;;;;;20.91;59.61;99647.77;126853;1089;112900;-81
2021/08/05 09:02:08;;;;;;;2.97;2.67;;;;;;;20.91;59.36;99643.30;127110;1088;101565;-82
2021/08/05 09:04:57;;;;;;;3.47;2.83;;;;;;;20.85;59.34;99649.13;127047;1090;101736;-81
2021/08/05 09:07:47;;;;;;;4.40;3.20;;;;;;;20.81;59.50;99643.22;126877;1089;102948;-81
2021/08/05 09:10:36;;;;;;;3.00;2.70;;;;;;;20.80;59.73;99640.70;126992;1089;102888;-82
2021/08/05 09:13:25;;;;;;;3.73;3.00;;;;;;;20.81;60.26;99639.73;126930;1088;114053;-81
2021/08/05 09:16:31;;;;;;;3.73;2.83;;;;;;;20.75;60.07;99635.80;126956;1088;102847;-81
2021/08/05 09:19:22;;;;;;;5.07;3.03;;;;;;;20.76;60.02;99623.39;126961;1090;114094;-83
2021/08/05 09:22:12;;;;;;;6.03;3.03;;;;;;;20.74;60.31;99633.28;126969;1090;102880;-81
2021/08/05 09:25:21;;;;;;;4.17;3.07;;;;;;;20.73;60.33;99628.95;126992;1089;113909;-81
2021/08/05 09:28:17;;;;;;;3.30;3.00;;;;;;;20.66;59.77;99633.94;127122;1090;102845;-81
2021/08/05 09:31:16;;;;;;;4.63;3.50;;;;;;;20.63;60.36;99622.73;127040;1090;113438;-81
2021/08/05 09:34:11;;;;;;;5.10;3.83;;;;;;;20.61;60.38;99629.97;127157;1090;103016;-81
2021/08/05 09:37:10;;;;;;;4.70;3.47;;;;;;;20.61;60.09;99632.61;126968;1089;112914;-81
2021/08/05 09:40:15;;;;;;;4.50;3.13;;;;;;;20.60;60.00;99623.83;127125;1088;102938;-81
2021/08/05 09:43:03;;;;;;;5.03;3.20;;;;;;;20.56;60.68;99625.06;126943;1089;114327;-81
2021/08/05 09:45:52;;;;;;;9.73;3.77;;;;;;;20.58;60.35;99630.23;127001;1089;102897;-82
2021/08/05 09:48:47;;;;;;;4.87;3.23;;;;;;;20.60;60.70;99628.28;126840;1087;114147;-81
2021/08/05 09:51:35;;;;;;;3.67;3.10;;;;;;;20.61;60.41;99633.45;126957;1088;102937;-81
2021/08/05 09:55:07;;;;;;;4.17;3.53;;;;;;;20.69;60.57;99638.13;126867;1090;114332;-81
2021/08/05 09:57:56;;;;;;;3.00;2.70;;;;;;;20.76;60.56;99631.34;126854;1090;101653;-82
2021/08/05 10:01:07;;;;;;;8.23;5.50;;;;;;;20.84;60.87;99626.25;126776;1090;114313;-80
2021/08/05 10:03:57;;;;;;;9.60;4.10;;;;;;;20.92;60.81;99623.77;126791;1090;102911;-80
2021/08/05 10:06:57;;;;;;;4.40;3.53;;;;;;;21.01;60.51;99617.70;126619;1090;114114;-80
2021/08/05 10:09:54;;;;;;;7.10;3.80;;;;;;;21.05;60.57;99611.16;126766;1090;102986;-81
2021/08/05 10:12:52;;;;;;;4.07;3.43;;;;;;;21.11;60.74;99610.63;126567;1089;114098;-82
2021/08/05 10:16:01;;;;;;;5.07;3.70;;;;;;;21.25;60.45;99613.94;126770;1088;102888;-82
2021/08/05 10:18:48;;;;;;;3.97;3.13;;;;;;;21.38;60.57;99614.56;126681;1090;114080;-83
2021/08/05 10:21:37;;;;;;;5.50;3.00;;;;;;;21.47;60.45;99612.91;126675;1090;103015;-83
2021/08/05 10:24:26;;;;;;;4.10;3.23;;;;;;;21.55;60.81;99607.79;126542;1090;113956;-83
2021/08/05 10:27:23;;;;;;;4.47;3.50;;;;;;;21.60;60.46;99611.71;126803;1090;102908;-83
2021/08/05 10:30:14;;;;;;;5.27;4.10;;;;;;;21.66;60.14;99595.23;126883;1089;114281;-84
2021/08/05 10:33:02;;;;;;;5.23;3.50;;;;;;;21.65;60.17;99603.34;126901;1090;102924;-83
2021/08/05 10:35:50;;;;;;;5.17;3.60;;;;;;;21.65;61.26;99596.21;126826;1088;113334;-83
2021/08/05 10:38:42;;;;;;;5.20;3.43;;;;;;;21.69;60.86;99591.47;127028;1090;102849;-83
2021/08/05 10:41:43;;;;;;;3.40;3.00;;;;;;;21.77;60.74;99590.80;126886;1090;113920;-83
2021/08/05 10:44:36;;;;;;;4.70;4.00;;;;;;;21.81;60.60;99578.93;126847;1090;102853;-83
2021/08/05 10:47:29;;;;;;;3.47;3.17;;;;;;;21.84;60.04;99586.61;126917;1088;114059;-84
2021/08/05 10:50:22;;;;;;;5.40;3.80;;;;;;;21.93;59.73;99583.99;126937;1087;101908;-83
2021/08/05 10:53:30;;;;;;;4.70;3.40;;;;;;;21.97;59.78;99584.55;127066;1087;102926;-83
2021/08/05 10:56:30;;;;;;;6.37;3.27;;;;;;;22.05;59.91;99583.88;127083;1088;102910;-83
2021/08/05 10:59:20;;;;;;;4.43;3.30;;;;;;;22.11;59.46;99581.53;127026;1087;102863;-83
2021/08/05 11:02:11;;;;;;;4.87;3.50;;;;;;;22.13;59.66;99587.53;126896;1089;113879;-83
2021/08/05 11:05:00;;;;;;;3.47;3.00;;;;;;;22.11;59.56;99576.22;127061;1089;102953;-82
2021/08/05 11:07:50;;;;;;;4.87;3.30;;;;;;;22.10;59.69;99573.70;126835;1090;114117;-83
2021/08/05 11:11:26;;;;;;;4.77;3.57;;;;;;;22.09;59.81;99583.48;127016;1090;102858;-81
2021/08/05 11:14:37;;;;;;;3.47;2.90;;;;;;;22.00;59.02;99585.11;126908;1088;112684;-82
2021/08/05 11:18:20;;;;;;;3.73;3.20;;;;;;;21.90;59.10;99591.36;126994;1089;100686;-82
2021/08/05 11:21:11;;;;;;;3.30;3.00;;;;;;;21.76;59.15;99586.47;127000;1089;103435;-82
2021/08/05 11:24:00;;;;;;;3.70;3.20;;;;;;;21.75;59.87;99585.64;126985;1088;103297;-82
2021/08/05 11:27:10;;;;;;;3.97;3.33;;;;;;;21.73;59.58;99576.13;126903;1089;113848;-82
2021/08/05 11:29:59;;;;;;;4.27;3.70;;;;;;;21.69;59.71;99580.85;127062;1089;102845;-83
2021/08/05 11:32:47;;;;;;;3.97;3.57;;;;;;;21.67;60.18;99578.34;126891;1089;112916;-82
2021/08/05 11:35:36;;;;;;;5.70;3.67;;;;;;;21.68;60.13;99569.39;126803;1090;102663;-82
2021/08/05 11:38:24;;;;;;;3.25;2.90;;;;;;;21.75;59.91;99568.88;126884;1090;114225;-82
2021/08/05 11:41:13;;;;;;;4.10;3.27;;;;;;;21.86;60.02;99564.27;127009;1088;102895;-82
2021/08/05 11:44:27;;;;;;;4.90;3.47;;;;;;;21.99;59.83;99567.50;126970;1090;114129;-82
2021/08/05 11:47:52;;;;;;;;;;;;;;;;;;;;;
2021/08/05 11:50:40;;;;;;;5.70;3.20;;;;;;;22.26;58.57;99569.52;126825;1090;113922;-83
2021/08/05 11:53:30;;;;;;;3.93;2.80;;;;;;;22.31;58.76;99558.45;126989;1089;102711;-83
2021/08/05 11:56:21;;;;;;;3.90;3.00;;;;;;;22.27;59.03;99565.88;126922;1088;112810;-82
2021/08/05 11:59:10;;;;;;;5.43;3.17;;;;;;;22.24;58.22;99555.50;126814;1089;102978;-82
2021/08/05 12:02:08;;;;;;;3.40;3.10;;;;;;;22.21;58.18;99558.45;126914;1089;113928;-82
2021/08/05 12:04:56;;;;;;;3.10;2.80;;;;;;;22.08;57.87;99560.53;126948;1089;103177;-82
2021/08/05 12:07:49;;;;;;;4.53;3.30;;;;;;;21.96;58.08;99561.63;126836;1088;113971;-82
2021/08/05 12:10:40;;;;;;;2.93;2.70;;;;;;;21.85;57.90;99561.75;126911;1090;102848;-81
2021/08/05 12:13:41;;;;;;;3.37;2.80;;;;;;;21.70;58.06;99551.52;126784;1090;114028;-82
2021/08/05 12:16:29;;;;;;;3.37;2.60;;;;;;;21.53;57.83;99546.03;126953;1090;102875;-81
2021/08/05 12:19:17;;;;;;;3.63;2.63;;;;;;;21.40;58.24;99554.26;126786;1090;113125;-81
2021/08/05 12:22:05;;;;;;;3.40;2.70;;;;;;;21.35;58.38;99545.84;126936;1090;103113;-82
2021/08/05 12:24:59;;;;;;;3.50;3.00;;;;;;;21.22;58.09;99538.11;126858;1090;114140;-81
2021/08/05 12:27:58;;;;;;;3.77;3.40;;;;;;;21.06;58.71;99530.65;126956;1089;102904;-81
2021/08/05 12:30:52;;;;;;;4.80;4.30;;;;;;;20.85;58.24;99532.52;126797;1090;114300;-81
2021/08/05 12:33:42;;;;;;;4.75;2.80;;;;;;;20.65;58.72;99525.44;126962;1087;102885;-80
2021/08/05 12:36:31;;;;;;;3.77;3.00;;;;;;;20.61;59.44;99523.98;126810;1090;102930;-79
2021/08/05 12:39:25;;;;;;;3.43;2.53;;;;;;;20.60;59.72;99517.85;126825;1090;113820;-80
2021/08/05 12:42:18;;;;;;;4.17;2.47;;;;;;;20.61;59.92;99510.74;126949;1090;103297;-81
2021/08/05 12:45:06;;;;;;;3.30;2.37;;;;;;;20.62;59.64;99515.06;126813;1088;114375;-81
2021/08/05 12:47:57;;;;;;;3.30;3.00;;;;;;;20.57;59.60;99515.47;126882;1087;102868;-81
2021/08/05 12:50:48;;;;;;;4.50;3.20;;;;;;;20.52;59.71;99512.38;126828;1088;113925;-80
2021/08/05 12:53:40;;;;;;;3.77;3.40;;;;;;;20.45;59.61;99498.80;127023;1089;103022;-80
2021/08/05 12:56:45;;;;;;;3.63;3.13;;;;;;;20.38;60.00;99497.62;126840;1087;112956;-80
2021/08/05 12:59:48;;;;;;;3.30;3.00;;;;;;;20.30;60.04;99493.95;126808;1088;101578;-80
2021/08/05 13:02:53;;;;;;;3.50;3.20;;;;;;;20.27;60.52;99500.31;126818;1090;112796;-80
2021/08/05 13:05:52;;;;;;;4.33;3.30;;;;;;;20.27;60.92;99495.02;126899;1089;101103;-79
2021/08/05 13:08:42;;;;;;;8.10;3.70;;;;;;;20.26;61.31;99482.75;126723;1090;113942;-81
2021/08/05 13:11:40;;;;;;;6.47;4.63;;;;;;;20.26;61.24;99479.27;126886;1090;102949;-80
2021/08/05 13:14:32;;;;;;;8.97;6.27;;;;;;;20.22;60.94;99470.75;126909;1090;114258;-80